sensor_id;sensor_type;location;lat;lon;timestamp;pressure;altitude;pressure_sealevel;temperature;humidity
10006;BME280;5042;42.626;23.382;2023-05-07T00:02:17;94598.38;;;11.30;100.00
10006;BME280;5042;42.626;23.382;2023-05-07T00:04:44;94592.09;;;11.31;100.00
10006;BME280;5042;42.626;23.382;2023-05-07T00:07:11;94597.00;;;11.34;100.00
10006;BME280;5042;42.626;23.382;2023-05-07T00:09:37;94604.00;;;11.27;100.00
10006;BME280;5042;42.626;23.382;2023-05-07T00:12:05;94605.69;;;11.35;100.00
10006;BME280;5042;42.626;23.382;2023-05-07T00:14:32;94609.75;;;11.37;100.00
10006;BME280;5042;42.626;23.382;2023-05-07T00:16:59;94617.13;;;11.49;100.00
10006;BME280;5042;42.626;23.382;2023-05-07T00:19:27;94609.84;;;11.51;100.00
10006;BME280;5042;42.626;23.382;2023-05-07T00:21:54;94612.75;;;11.62;100.00
10006;BME280;5042;42.626;23.382;2023-05-07T00:24:21;94608.81;;;11.73;100.00
10006;BME280;5042;42.626;23.382;2023-05-07T00:26:48;94601.19;;;11.78;100.00
10006;BME280;5042;42.626;23.382;2023-05-07T00:29:14;94604.38;;;11.74;100.00
10006;BME280;5042;42.626;23.382;2023-05-07T00:31:41;94599.94;;;11.74;100.00
10006;BME280;5042;42.626;23.382;2023-05-07T00:34:08;94600.78;;;11.81;100.00
10006;BME280;5042;42.626;23.382;2023-05-07T00:36:36;94601.22;;;11.85;100.00
10006;BME280;5042;42.626;23.382;2023-05-07T00:39:02;94608.69;;;11.60;100.00
10006;BME280;5042;42.626;23.382;2023-05-07T00:41:30;94609.91;;;11.57;100.00
10006;BME280;5042;42.626;23.382;2023-05-07T00:43:57;94613.41;;;11.43;100.00
10006;BME280;5042;42.626;23.382;2023-05-07T00:46:24;94612.28;;;11.31;100.00
10006;BME280;5042;42.626;23.382;2023-05-07T00:48:51;94609.56;;;10.81;100.00
10006;BME280;5042;42.626;23.382;2023-05-07T00:51:18;94617.22;;;10.61;100.00
10006;BME280;5042;42.626;23.382;2023-05-07T00:53:46;94616.06;;;10.49;100.00
10006;BME280;5042;42.626;23.382;2023-05-07T00:56:13;94614.66;;;10.08;100.00
10006;BME280;5042;42.626;23.382;2023-05-07T00:58:40;94608.06;;;9.97;100.00
10006;BME280;5042;42.626;23.382;2023-05-07T01:01:08;94608.88;;;9.98;100.00
10006;BME280;5042;42.626;23.382;2023-05-07T01:03:34;94614.13;;;9.98;100.00
10006;BME280;5042;42.626;23.382;2023-05-07T01:06:02;94614.28;;;9.82;100.00
10006;BME280;5042;42.626;23.382;2023-05-07T01:08:30;94618.44;;;9.76;100.00
10006;BME280;5042;42.626;23.382;2023-05-07T01:10:59;94623.84;;;9.74;100.00
10006;BME280;5042;42.626;23.382;2023-05-07T01:13:27;94619.59;;;9.73;100.00
10006;BME280;5042;42.626;23.382;2023-05-07T01:15:54;94625.00;;;9.72;100.00
10006;BME280;5042;42.626;23.382;2023-05-07T01:18:21;94634.13;;;9.61;100.00
10006;BME280;5042;42.626;23.382;2023-05-07T01:20:48;94624.97;;;9.57;100.00
10006;BME280;5042;42.626;23.382;2023-05-07T01:23:16;94619.38;;;9.60;100.00
10006;BME280;5042;42.626;23.382;2023-05-07T01:25:51;94614.91;;;9.69;100.00
10006;BME280;5042;42.626;23.382;2023-05-07T01:28:17;94607.94;;;9.61;100.00
10006;BME280;5042;42.626;23.382;2023-05-07T01:30:46;94612.72;;;9.72;100.00
10006;BME280;5042;42.626;23.382;2023-05-07T01:33:16;94611.94;;;9.87;100.00
10006;BME280;5042;42.626;23.382;2023-05-07T01:35:47;94608.50;;;10.01;100.00
10006;BME280;5042;42.626;23.382;2023-05-07T01:38:17;94609.34;;;10.16;100.00
10006;BME280;5042;42.626;23.382;2023-05-07T01:40:45;94608.97;;;10.05;100.00
10006;BME280;5042;42.626;23.382;2023-05-07T01:43:12;94605.81;;;10.09;100.00
10006;BME280;5042;42.626;23.382;2023-05-07T01:45:39;94605.81;;;10.09;100.00
10006;BME280;5042;42.626;23.382;2023-05-07T01:48:07;94600.41;;;10.11;100.00
10006;BME280;5042;42.626;23.382;2023-05-07T01:50:35;94587.22;;;10.04;100.00
10006;BME280;5042;42.626;23.382;2023-05-07T01:53:03;94599.25;;;10.13;100.00
10006;BME280;5042;42.626;23.382;2023-05-07T01:55:31;94600.75;;;10.23;100.00
10006;BME280;5042;42.626;23.382;2023-05-07T01:57:58;94589.03;;;10.33;100.00
10006;BME280;5042;42.626;23.382;2023-05-07T02:00:24;94587.06;;;10.35;100.00
10006;BME280;5042;42.626;23.382;2023-05-07T02:02:52;94541.69;;;10.05;100.00
10006;BME280;5042;42.626;23.382;2023-05-07T02:05:19;94588.03;;;10.34;100.00
10006;BME280;5042;42.626;23.382;2023-05-07T02:07:46;94581.69;;;10.44;100.00
10006;BME280;5042;42.626;23.382;2023-05-07T02:10:12;94575.94;;;10.33;100.00
10006;BME280;5042;42.626;23.382;2023-05-07T02:12:40;94575.13;;;10.33;100.00
10006;BME280;5042;42.626;23.382;2023-05-07T02:15:08;94571.59;;;10.26;100.00
10006;BME280;5042;42.626;23.382;2023-05-07T02:17:38;94554.25;;;10.10;100.00
10006;BME280;5042;42.626;23.382;2023-05-07T02:20:07;94553.78;;;9.76;100.00
10006;BME280;5042;42.626;23.382;2023-05-07T02:22:38;94560.31;;;9.81;100.00
10006;BME280;5042;42.626;23.382;2023-05-07T02:25:05;94567.78;;;9.69;100.00
10006;BME280;5042;42.626;23.382;2023-05-07T02:27:32;94567.94;;;9.67;100.00
10006;BME280;5042;42.626;23.382;2023-05-07T02:30:00;94557.47;;;9.67;100.00
10006;BME280;5042;42.626;23.382;2023-05-07T02:32:27;94564.53;;;9.67;100.00
10006;BME280;5042;42.626;23.382;2023-05-07T02:34:54;94564.00;;;9.71;100.00
10006;BME280;5042;42.626;23.382;2023-05-07T02:37:21;94567.31;;;9.65;100.00
10006;BME280;5042;42.626;23.382;2023-05-07T02:39:47;94570.94;;;9.64;100.00
10006;BME280;5042;42.626;23.382;2023-05-07T02:42:14;94565.59;;;9.58;100.00
10006;BME280;5042;42.626;23.382;2023-05-07T02:44:41;94561.91;;;9.52;100.00
10006;BME280;5042;42.626;23.382;2023-05-07T02:47:09;94570.03;;;9.57;100.00
10006;BME280;5042;42.626;23.382;2023-05-07T02:49:38;94561.81;;;9.60;100.00
10006;BME280;5042;42.626;23.382;2023-05-07T02:52:05;94567.03;;;9.60;100.00
10006;BME280;5042;42.626;23.382;2023-05-07T02:54:31;94563.53;;;9.68;100.00
10006;BME280;5042;42.626;23.382;2023-05-07T02:56:58;94565.06;;;9.62;100.00
10006;BME280;5042;42.626;23.382;2023-05-07T02:59:26;94570.38;;;9.54;100.00
10006;BME280;5042;42.626;23.382;2023-05-07T03:01:52;94577.78;;;9.65;100.00
10006;BME280;5042;42.626;23.382;2023-05-07T03:04:20;94575.63;;;9.69;100.00
10006;BME280;5042;42.626;23.382;2023-05-07T03:06:47;94574.91;;;9.75;100.00
10006;BME280;5042;42.626;23.382;2023-05-07T03:09:14;94580.72;;;9.85;100.00
10006;BME280;5042;42.626;23.382;2023-05-07T03:11:41;94576.19;;;9.94;100.00
10006;BME280;5042;42.626;23.382;2023-05-07T03:14:08;94582.16;;;10.03;100.00
10006;BME280;5042;42.626;23.382;2023-05-07T03:16:35;94578.34;;;10.05;100.00
10006;BME280;5042;42.626;23.382;2023-05-07T03:19:02;94584.50;;;10.12;100.00
10006;BME280;5042;42.626;23.382;2023-05-07T03:21:30;94578.34;;;10.20;100.00
10006;BME280;5042;42.626;23.382;2023-05-07T03:23:59;94588.13;;;10.26;100.00
10006;BME280;5042;42.626;23.382;2023-05-07T03:26:26;94583.16;;;10.31;100.00
10006;BME280;5042;42.626;23.382;2023-05-07T03:28:52;94590.94;;;10.39;100.00
10006;BME280;5042;42.626;23.382;2023-05-07T03:31:19;94590.03;;;10.47;100.00
10006;BME280;5042;42.626;23.382;2023-05-07T03:33:50;94591.53;;;10.56;100.00
10006;BME280;5042;42.626;23.382;2023-05-07T03:36:18;94586.84;;;10.52;100.00
10006;BME280;5042;42.626;23.382;2023-05-07T03:38:46;94592.28;;;10.50;100.00
10006;BME280;5042;42.626;23.382;2023-05-07T03:41:13;94585.66;;;10.54;100.00
10006;BME280;5042;42.626;23.382;2023-05-07T03:43:40;94585.56;;;10.63;100.00
10006;BME280;5042;42.626;23.382;2023-05-07T03:46:07;94587.81;;;10.66;100.00
10006;BME280;5042;42.626;23.382;2023-05-07T03:48:34;94593.97;;;10.73;100.00
10006;BME280;5042;42.626;23.382;2023-05-07T03:51:00;94593.84;;;10.81;100.00
10006;BME280;5042;42.626;23.382;2023-05-07T03:53:27;94595.16;;;10.92;100.00
10006;BME280;5042;42.626;23.382;2023-05-07T03:55:55;94597.25;;;10.96;100.00
10006;BME280;5042;42.626;23.382;2023-05-07T03:58:22;94601.00;;;11.09;100.00
10006;BME280;5042;42.626;23.382;2023-05-07T04:00:49;94599.50;;;11.21;100.00
10006;BME280;5042;42.626;23.382;2023-05-07T04:03:15;94613.63;;;11.41;100.00
10006;BME280;5042;42.626;23.382;2023-05-07T04:05:42;94617.78;;;11.57;100.00
10006;BME280;5042;42.626;23.382;2023-05-07T04:08:09;94608.94;;;11.86;100.00
10006;BME280;5042;42.626;23.382;2023-05-07T04:10:36;94615.41;;;12.19;100.00
10006;BME280;5042;42.626;23.382;2023-05-07T04:13:04;94623.94;;;12.62;100.00
10006;BME280;5042;42.626;23.382;2023-05-07T04:15:30;94622.91;;;13.18;100.00
10006;BME280;5042;42.626;23.382;2023-05-07T04:17:57;94634.16;;;13.53;100.00
10006;BME280;5042;42.626;23.382;2023-05-07T04:20:24;94642.47;;;14.04;100.00
10006;BME280;5042;42.626;23.382;2023-05-07T04:22:50;94636.94;;;14.58;100.00
10006;BME280;5042;42.626;23.382;2023-05-07T04:25:17;94647.84;;;14.75;100.00
10006;BME280;5042;42.626;23.382;2023-05-07T04:27:44;94646.03;;;14.69;100.00
10006;BME280;5042;42.626;23.382;2023-05-07T04:30:13;94650.09;;;14.72;100.00
10006;BME280;5042;42.626;23.382;2023-05-07T04:32:40;94662.88;;;15.26;100.00
10006;BME280;5042;42.626;23.382;2023-05-07T04:35:07;94668.41;;;15.88;100.00
10006;BME280;5042;42.626;23.382;2023-05-07T04:37:34;94664.03;;;16.26;100.00
10006;BME280;5042;42.626;23.382;2023-05-07T04:40:01;94665.41;;;16.72;100.00
10006;BME280;5042;42.626;23.382;2023-05-07T04:42:28;94670.28;;;16.93;100.00
10006;BME280;5042;42.626;23.382;2023-05-07T04:44:55;94663.88;;;17.01;100.00
10006;BME280;5042;42.626;23.382;2023-05-07T04:47:23;94669.16;;;17.20;100.00
10006;BME280;5042;42.626;23.382;2023-05-07T04:49:49;94668.47;;;17.43;100.00
10006;BME280;5042;42.626;23.382;2023-05-07T04:52:16;94671.44;;;17.95;100.00
10006;BME280;5042;42.626;23.382;2023-05-07T04:54:43;94674.94;;;18.42;100.00
10006;BME280;5042;42.626;23.382;2023-05-07T04:57:09;94680.25;;;18.66;100.00
10006;BME280;5042;42.626;23.382;2023-05-07T04:59:36;94680.78;;;19.15;97.65
10006;BME280;5042;42.626;23.382;2023-05-07T05:02:03;94668.22;;;19.39;94.30
10006;BME280;5042;42.626;23.382;2023-05-07T05:04:32;94635.38;;;19.45;90.88
10006;BME280;5042;42.626;23.382;2023-05-07T05:06:58;94664.63;;;20.03;90.30
10006;BME280;5042;42.626;23.382;2023-05-07T05:09:25;94671.63;;;20.09;86.78
10006;BME280;5042;42.626;23.382;2023-05-07T05:11:52;94672.91;;;20.40;83.53
10006;BME280;5042;42.626;23.382;2023-05-07T05:14:18;94663.84;;;19.90;83.03
10006;BME280;5042;42.626;23.382;2023-05-07T05:16:45;94667.00;;;19.59;86.36
10006;BME280;5042;42.626;23.382;2023-05-07T05:19:12;94658.78;;;19.60;90.17
10006;BME280;5042;42.626;23.382;2023-05-07T05:21:40;94663.38;;;19.94;85.80
10006;BME280;5042;42.626;23.382;2023-05-07T05:24:07;94671.31;;;20.05;83.53
10006;BME280;5042;42.626;23.382;2023-05-07T05:26:34;94675.41;;;20.47;82.20
10006;BME280;5042;42.626;23.382;2023-05-07T05:29:01;94680.81;;;20.86;80.02
10006;BME280;5042;42.626;23.382;2023-05-07T05:31:27;94676.03;;;21.10;74.52
10006;BME280;5042;42.626;23.382;2023-05-07T05:33:54;94669.81;;;21.04;78.50
10006;BME280;5042;42.626;23.382;2023-05-07T05:36:21;94675.84;;;21.16;73.60
10006;BME280;5042;42.626;23.382;2023-05-07T05:38:49;94677.94;;;20.92;77.76
10006;BME280;5042;42.626;23.382;2023-05-07T05:41:16;94675.84;;;20.22;83.70
10006;BME280;5042;42.626;23.382;2023-05-07T05:43:42;94682.56;;;19.67;83.56
10006;BME280;5042;42.626;23.382;2023-05-07T05:46:09;94667.56;;;18.80;93.45
10006;BME280;5042;42.626;23.382;2023-05-07T05:48:37;94670.09;;;18.87;94.27
10006;BME280;5042;42.626;23.382;2023-05-07T05:51:03;94675.53;;;18.80;94.69
10006;BME280;5042;42.626;23.382;2023-05-07T05:53:30;94676.59;;;19.19;92.86
10006;BME280;5042;42.626;23.382;2023-05-07T05:55:58;94674.56;;;19.67;89.63
10006;BME280;5042;42.626;23.382;2023-05-07T05:58:25;94673.59;;;19.56;90.62
10006;BME280;5042;42.626;23.382;2023-05-07T06:00:52;94671.22;;;19.72;90.73
10006;BME280;5042;42.626;23.382;2023-05-07T06:03:19;94674.56;;;19.79;90.95
10006;BME280;5042;42.626;23.382;2023-05-07T06:05:46;94672.50;;;20.48;85.38
10006;BME280;5042;42.626;23.382;2023-05-07T06:08:13;94685.06;;;21.09;78.23
10006;BME280;5042;42.626;23.382;2023-05-07T06:10:40;94683.81;;;20.94;77.38
10006;BME280;5042;42.626;23.382;2023-05-07T06:13:08;94687.91;;;21.41;76.87
10006;BME280;5042;42.626;23.382;2023-05-07T06:15:35;94683.59;;;21.89;71.13
10006;BME280;5042;42.626;23.382;2023-05-07T06:18:01;94690.59;;;22.55;70.13
10006;BME280;5042;42.626;23.382;2023-05-07T06:20:28;94694.69;;;23.05;67.68
10006;BME280;5042;42.626;23.382;2023-05-07T06:22:55;94689.38;;;23.15;65.02
10006;BME280;5042;42.626;23.382;2023-05-07T06:25:21;94678.44;;;22.74;67.44
10006;BME280;5042;42.626;23.382;2023-05-07T06:27:48;94675.47;;;22.28;66.06
10006;BME280;5042;42.626;23.382;2023-05-07T06:30:16;94674.44;;;22.39;68.12
10006;BME280;5042;42.626;23.382;2023-05-07T06:32:43;94674.25;;;22.46;66.01
10006;BME280;5042;42.626;23.382;2023-05-07T06:35:10;94664.53;;;22.35;68.96
10006;BME280;5042;42.626;23.382;2023-05-07T06:37:36;94673.97;;;22.42;69.98
10006;BME280;5042;42.626;23.382;2023-05-07T06:40:05;94669.53;;;22.63;64.37
10006;BME280;5042;42.626;23.382;2023-05-07T06:42:32;94676.91;;;23.31;60.77
10006;BME280;5042;42.626;23.382;2023-05-07T06:44:59;94673.47;;;23.46;59.12
10006;BME280;5042;42.626;23.382;2023-05-07T06:47:27;94669.75;;;23.62;59.09
10006;BME280;5042;42.626;23.382;2023-05-07T06:49:54;94663.31;;;23.48;58.04
10006;BME280;5042;42.626;23.382;2023-05-07T06:52:21;94660.91;;;22.94;60.30
10006;BME280;5042;42.626;23.382;2023-05-07T06:54:48;94654.88;;;22.66;65.00
10006;BME280;5042;42.626;23.382;2023-05-07T06:57:14;94649.19;;;22.52;64.19
10006;BME280;5042;42.626;23.382;2023-05-07T06:59:41;94645.13;;;21.85;63.64
10006;BME280;5042;42.626;23.382;2023-05-07T07:02:08;94645.91;;;21.31;65.94
10006;BME280;5042;42.626;23.382;2023-05-07T07:04:36;94642.97;;;21.33;72.00
10006;BME280;5042;42.626;23.382;2023-05-07T07:07:03;94641.72;;;21.63;77.93
10006;BME280;5042;42.626;23.382;2023-05-07T07:09:29;94650.78;;;21.62;65.96
10006;BME280;5042;42.626;23.382;2023-05-07T07:11:56;94647.56;;;22.19;64.79
10006;BME280;5042;42.626;23.382;2023-05-07T07:14:23;94658.09;;;22.68;63.82
10006;BME280;5042;42.626;23.382;2023-05-07T07:16:50;94655.16;;;23.17;64.04
10006;BME280;5042;42.626;23.382;2023-05-07T07:19:16;94650.50;;;23.65;60.01
10006;BME280;5042;42.626;23.382;2023-05-07T07:21:45;94654.81;;;23.71;58.30
10006;BME280;5042;42.626;23.382;2023-05-07T07:24:12;94647.91;;;23.91;60.10
10006;BME280;5042;42.626;23.382;2023-05-07T07:26:44;94643.63;;;24.31;61.66
10006;BME280;5042;42.626;23.382;2023-05-07T07:29:11;94647.91;;;24.63;50.83
10006;BME280;5042;42.626;23.382;2023-05-07T07:31:38;94645.75;;;24.70;54.96
10006;BME280;5042;42.626;23.382;2023-05-07T07:34:05;94643.59;;;24.87;51.13
10006;BME280;5042;42.626;23.382;2023-05-07T07:36:31;94643.03;;;24.90;52.86
10006;BME280;5042;42.626;23.382;2023-05-07T07:38:59;94649.25;;;24.65;50.56
10006;BME280;5042;42.626;23.382;2023-05-07T08:25:03;94646.97;;;25.24;50.49
10006;BME280;5042;42.626;23.382;2023-05-07T08:27:30;94642.22;;;25.65;52.93
10006;BME280;5042;42.626;23.382;2023-05-07T08:30:03;94649.56;;;26.33;48.38
10006;BME280;5042;42.626;23.382;2023-05-07T08:32:36;94643.53;;;26.17;48.47
10006;BME280;5042;42.626;23.382;2023-05-07T08:35:17;94645.00;;;25.45;48.12
10006;BME280;5042;42.626;23.382;2023-05-07T08:37:44;94638.28;;;24.26;54.57
10006;BME280;5042;42.626;23.382;2023-05-07T08:40:15;94635.06;;;23.98;57.40
10006;BME280;5042;42.626;23.382;2023-05-07T08:42:58;94624.81;;;23.64;52.84
10006;BME280;5042;42.626;23.382;2023-05-07T08:45:37;94616.41;;;22.67;55.08
10006;BME280;5042;42.626;23.382;2023-05-07T08:48:09;94632.63;;;22.55;55.71
10006;BME280;5042;42.626;23.382;2023-05-07T08:50:48;94618.41;;;22.12;57.44
10006;BME280;5042;42.626;23.382;2023-05-07T08:53:34;94576.78;;;21.79;60.78
10006;BME280;5042;42.626;23.382;2023-05-07T08:56:16;94626.88;;;22.04;55.81
10006;BME280;5042;42.626;23.382;2023-05-07T08:58:46;94604.94;;;21.97;53.89
10006;BME280;5042;42.626;23.382;2023-05-07T09:01:14;94555.44;;;21.52;54.63
10006;BME280;5042;42.626;23.382;2023-05-07T09:03:50;94594.97;;;21.87;53.19
10006;BME280;5042;42.626;23.382;2023-05-07T09:06:26;94617.13;;;22.20;52.34
10006;BME280;5042;42.626;23.382;2023-05-07T09:08:54;94620.00;;;22.13;51.42
10006;BME280;5042;42.626;23.382;2023-05-07T09:11:38;94598.38;;;22.10;51.95
10006;BME280;5042;42.626;23.382;2023-05-07T09:14:04;94609.88;;;22.48;54.50
10006;BME280;5042;42.626;23.382;2023-05-07T09:16:31;94609.88;;;22.95;53.94
10006;BME280;5042;42.626;23.382;2023-05-07T09:18:59;94610.34;;;23.50;57.68
10006;BME280;5042;42.626;23.382;2023-05-07T09:21:26;94609.31;;;23.66;51.89
10006;BME280;5042;42.626;23.382;2023-05-07T09:23:54;94601.28;;;23.71;51.04
10006;BME280;5042;42.626;23.382;2023-05-07T09:26:22;94599.63;;;23.40;48.58
10006;BME280;5042;42.626;23.382;2023-05-07T09:28:51;94597.28;;;23.79;54.21
10006;BME280;5042;42.626;23.382;2023-05-07T09:31:18;94599.16;;;24.55;49.31
10006;BME280;5042;42.626;23.382;2023-05-07T09:33:44;94589.88;;;25.03;48.94
10006;BME280;5042;42.626;23.382;2023-05-07T09:36:11;94592.75;;;25.27;47.05
10006;BME280;5042;42.626;23.382;2023-05-07T09:38:39;94585.38;;;25.53;46.96
10006;BME280;5042;42.626;23.382;2023-05-07T09:41:08;94587.78;;;25.54;43.69
10006;BME280;5042;42.626;23.382;2023-05-07T09:43:36;94595.53;;;26.00;43.01
10006;BME280;5042;42.626;23.382;2023-05-07T09:46:07;94570.66;;;25.90;44.70
10006;BME280;5042;42.626;23.382;2023-05-07T09:48:38;94583.28;;;25.45;43.89
10006;BME280;5042;42.626;23.382;2023-05-07T09:51:12;94580.22;;;25.07;42.61
10006;BME280;5042;42.626;23.382;2023-05-07T09:53:43;94586.28;;;24.42;41.90
10006;BME280;5042;42.626;23.382;2023-05-07T09:56:13;94573.19;;;24.25;46.04
10006;BME280;5042;42.626;23.382;2023-05-07T09:58:41;94584.13;;;24.39;45.07
10006;BME280;5042;42.626;23.382;2023-05-07T10:01:10;94564.31;;;24.50;43.84
10006;BME280;5042;42.626;23.382;2023-05-07T10:03:40;94576.38;;;24.53;44.49
10006;BME280;5042;42.626;23.382;2023-05-07T10:06:08;94561.19;;;25.03;45.27
10006;BME280;5042;42.626;23.382;2023-05-07T10:08:36;94559.78;;;25.16;44.96
10006;BME280;5042;42.626;23.382;2023-05-07T10:11:04;94567.53;;;25.72;42.83
10006;BME280;5042;42.626;23.382;2023-05-07T10:13:32;94568.13;;;26.04;42.61
10006;BME280;5042;42.626;23.382;2023-05-07T10:16:00;94568.59;;;26.40;46.40
10006;BME280;5042;42.626;23.382;2023-05-07T10:18:30;94564.53;;;26.42;41.06
10006;BME280;5042;42.626;23.382;2023-05-07T10:21:04;94531.09;;;25.61;40.42
10006;BME280;5042;42.626;23.382;2023-05-07T10:23:33;94554.78;;;24.99;40.54
10006;BME280;5042;42.626;23.382;2023-05-07T10:26:02;94559.63;;;24.92;41.54
10006;BME280;5042;42.626;23.382;2023-05-07T10:28:32;94532.63;;;24.78;40.29
10006;BME280;5042;42.626;23.382;2023-05-07T10:31:14;94557.25;;;24.85;42.49
10006;BME280;5042;42.626;23.382;2023-05-07T10:33:47;94537.66;;;25.45;43.93
10006;BME280;5042;42.626;23.382;2023-05-07T10:36:17;94543.06;;;25.74;44.16
10006;BME280;5042;42.626;23.382;2023-05-07T10:38:45;94537.97;;;25.77;41.38
10006;BME280;5042;42.626;23.382;2023-05-07T10:41:12;94525.78;;;25.90;43.68
10006;BME280;5042;42.626;23.382;2023-05-07T10:43:41;94533.84;;;26.19;40.43
10006;BME280;5042;42.626;23.382;2023-05-07T10:46:15;94531.31;;;26.04;40.60
10006;BME280;5042;42.626;23.382;2023-05-07T10:49:07;94538.50;;;25.79;39.45
10006;BME280;5042;42.626;23.382;2023-05-07T10:51:35;94533.78;;;25.61;38.63
10006;BME280;5042;42.626;23.382;2023-05-07T10:54:21;94535.25;;;25.43;40.37
10006;BME280;5042;42.626;23.382;2023-05-07T10:56:49;94536.47;;;25.11;39.09
10006;BME280;5042;42.626;23.382;2023-05-07T10:59:36;94527.31;;;24.68;41.50
10006;BME280;5042;42.626;23.382;2023-05-07T11:02:07;94519.28;;;24.52;43.45
10006;BME280;5042;42.626;23.382;2023-05-07T11:04:37;94514.81;;;24.97;43.37
10006;BME280;5042;42.626;23.382;2023-05-07T11:07:23;94502.28;;;25.37;43.56
10006;BME280;5042;42.626;23.382;2023-05-07T11:10:00;94537.00;;;25.63;39.81
10006;BME280;5042;42.626;23.382;2023-05-07T11:12:53;94529.47;;;25.99;39.76
10006;BME280;5042;42.626;23.382;2023-05-07T11:15:37;94507.41;;;26.02;42.01
10006;BME280;5042;42.626;23.382;2023-05-07T11:18:05;94531.88;;;26.30;38.16
10006;BME280;5042;42.626;23.382;2023-05-07T11:20:52;94537.06;;;26.21;39.76
10006;BME280;5042;42.626;23.382;2023-05-07T11:26:43;94528.16;;;25.97;38.60
10006;BME280;5042;42.626;23.382;2023-05-07T11:29:12;94525.00;;;25.90;41.26
10006;BME280;5042;42.626;23.382;2023-05-07T11:31:39;94522.78;;;25.57;37.85
10006;BME280;5042;42.626;23.382;2023-05-07T11:34:06;94518.69;;;24.76;40.20
10006;BME280;5042;42.626;23.382;2023-05-07T11:36:35;94513.44;;;24.30;38.25
10006;BME280;5042;42.626;23.382;2023-05-07T11:39:23;94514.00;;;24.11;39.30
10006;BME280;5042;42.626;23.382;2023-05-07T11:41:50;94514.56;;;23.98;42.11
10006;BME280;5042;42.626;23.382;2023-05-07T11:44:17;94503.84;;;24.13;43.23
10006;BME280;5042;42.626;23.382;2023-05-07T11:46:44;94481.25;;;24.50;42.13
10006;BME280;5042;42.626;23.382;2023-05-07T11:49:11;94507.78;;;25.12;40.03
10006;BME280;5042;42.626;23.382;2023-05-07T11:51:39;94509.06;;;25.25;39.51
10006;BME280;5042;42.626;23.382;2023-05-07T11:54:08;94509.72;;;25.51;39.29
10006;BME280;5042;42.626;23.382;2023-05-07T11:56:37;94506.25;;;25.79;37.71
10006;BME280;5042;42.626;23.382;2023-05-07T11:59:04;94495.38;;;25.26;37.32
10006;BME280;5042;42.626;23.382;2023-05-07T12:01:31;94508.44;;;25.38;37.56
10006;BME280;5042;42.626;23.382;2023-05-07T12:03:58;94497.38;;;24.20;38.85
10006;BME280;5042;42.626;23.382;2023-05-07T12:06:24;94491.50;;;24.23;39.78
10006;BME280;5042;42.626;23.382;2023-05-07T12:08:53;94485.00;;;24.49;39.53
10006;BME280;5042;42.626;23.382;2023-05-07T12:11:24;94468.31;;;24.73;40.63
10006;BME280;5042;42.626;23.382;2023-05-07T12:13:54;94486.41;;;24.91;38.52
10006;BME280;5042;42.626;23.382;2023-05-07T12:16:21;94480.44;;;24.50;38.68
10006;BME280;5042;42.626;23.382;2023-05-07T12:18:48;94476.69;;;24.46;40.00
10006;BME280;5042;42.626;23.382;2023-05-07T12:21:15;94475.78;;;24.76;42.02
10006;BME280;5042;42.626;23.382;2023-05-07T12:23:43;94473.41;;;24.64;37.97
10006;BME280;5042;42.626;23.382;2023-05-07T12:26:11;94481.38;;;23.68;39.22
10006;BME280;5042;42.626;23.382;2023-05-07T12:28:38;94473.88;;;23.45;40.79
10006;BME280;5042;42.626;23.382;2023-05-07T12:31:06;94454.06;;;23.41;40.88
10006;BME280;5042;42.626;23.382;2023-05-07T12:33:34;94465.28;;;23.07;39.73
10006;BME280;5042;42.626;23.382;2023-05-07T12:36:03;94449.75;;;23.04;41.14
10006;BME280;5042;42.626;23.382;2023-05-07T12:38:35;94439.09;;;23.09;43.78
10006;BME280;5042;42.626;23.382;2023-05-07T12:41:02;94416.91;;;23.19;41.74
10006;BME280;5042;42.626;23.382;2023-05-07T12:43:30;94454.88;;;23.62;39.91
10006;BME280;5042;42.626;23.382;2023-05-07T12:46:00;94439.38;;;23.59;40.63
10006;BME280;5042;42.626;23.382;2023-05-07T12:48:27;94443.09;;;23.83;40.71
10006;BME280;5042;42.626;23.382;2023-05-07T12:50:54;94441.38;;;24.28;40.46
10006;BME280;5042;42.626;23.382;2023-05-07T12:53:23;94424.72;;;24.47;38.02
10006;BME280;5042;42.626;23.382;2023-05-07T12:55:51;94435.75;;;24.25;38.08
10006;BME280;5042;42.626;23.382;2023-05-07T12:58:21;94430.91;;;24.37;38.57
10006;BME280;5042;42.626;23.382;2023-05-07T13:00:51;94431.03;;;24.71;39.59
10006;BME280;5042;42.626;23.382;2023-05-07T13:03:21;94395.38;;;24.71;38.35
10006;BME280;5042;42.626;23.382;2023-05-07T13:05:49;94429.44;;;25.10;38.14
10006;BME280;5042;42.626;23.382;2023-05-07T13:08:30;94428.56;;;25.30;36.09
10006;BME280;5042;42.626;23.382;2023-05-07T13:10:58;94431.91;;;25.46;37.97
10006;BME280;5042;42.626;23.382;2023-05-07T13:13:28;94416.63;;;25.41;37.67
10006;BME280;5042;42.626;23.382;2023-05-07T13:15:56;94435.25;;;25.62;34.72
10006;BME280;5042;42.626;23.382;2023-05-07T13:18:24;94426.16;;;25.57;35.31
10006;BME280;5042;42.626;23.382;2023-05-07T13:20:51;94418.03;;;25.33;36.13
10006;BME280;5042;42.626;23.382;2023-05-07T13:23:18;94416.34;;;25.03;36.22
10006;BME280;5042;42.626;23.382;2023-05-07T13:25:45;94419.88;;;24.98;36.43
10006;BME280;5042;42.626;23.382;2023-05-07T13:28:12;94415.78;;;24.67;35.21
10006;BME280;5042;42.626;23.382;2023-05-07T13:30:38;94416.34;;;24.64;36.55
10006;BME280;5042;42.626;23.382;2023-05-07T13:33:07;94404.66;;;24.89;36.14
10006;BME280;5042;42.626;23.382;2023-05-07T13:35:34;94362.41;;;24.75;37.53
10006;BME280;5042;42.626;23.382;2023-05-07T13:38:01;94403.78;;;24.98;37.65
10006;BME280;5042;42.626;23.382;2023-05-07T13:40:27;94407.81;;;25.01;36.38
10006;BME280;5042;42.626;23.382;2023-05-07T13:42:57;94402.09;;;25.08;36.92
10006;BME280;5042;42.626;23.382;2023-05-07T13:45:25;94410.31;;;25.27;36.12
10006;BME280;5042;42.626;23.382;2023-05-07T13:47:52;94360.25;;;25.12;34.01
10006;BME280;5042;42.626;23.382;2023-05-07T13:50:20;94423.19;;;25.59;33.40
10006;BME280;5042;42.626;23.382;2023-05-07T13:52:47;94408.66;;;25.65;34.23